Terminal Aerodrome Forecast
Issued by NWS Grand Forks, ND

Home | Current Version | Previous Version | Graphics & Text | Print | Product List | Glossary On
Versions: 1 2 3 4 5 6 7 8 9 10 11 12 13 14 15
316
FTUS43 KFGF 151736
TAFGFK
TAF
KGFK 151736Z 1518/1618 33019G27KT P6SM BKN015
     FM152300 34014KT P6SM BKN015
     FM160800 VRB06KT P6SM BKN025
     FM161400 13013KT P6SM BKN025
     FM161700 15019G27KT P6SM BKN035=

USA.gov is the U.S. government's official web portal to all federal, state and local government web resources and services.